• Join FlightAware (Why Join?)
  • Login
  • US Flag 
08:00PM EDT


 

Airport Tracker/Info


-or-


 

Live Flight TrackerFlight Track Log ✈ KFA281 ✈ 05-May-2012 ✈ CYHZ - CYHM

Flight Track Log - Related Links

Times and Time Zones

All times are in EDT time to prevent confusion due to time zone crossing. See the KFA281 flight status page for this flight to view local times or setup timezone preferences in your user account.

Time Position Orientation Groundspeed Altitude Reporting Facility
EDT Latitude Longitude Course Direction KTS MPH feet Rate Location/Type
11:22PM 44.8912 -64.3605 89° East  Level FlightAware Approximate
11:23PM 44.8800 -64.5138 88° East  Level FlightAware Approximate
11:24PM 44.8644 -64.6674 87° East  Level FlightAware Approximate
11:25PM 44.8499 -64.8212 87° East  Level FlightAware Approximate
11:26PM 44.8399 -64.9752 86° East  Level FlightAware Approximate
11:27PM 44.8248 -65.1288 86° East  Level FlightAware Approximate
11:28PM 44.8041 -65.2810 85° East  Level FlightAware Approximate
11:29PM 44.9000 -63.4833 292° West 170 196 1,700  Level Moncton Center
11:34PM 45.0333 -63.9500 290° West 320 368 10,400 1,560 Climbing Moncton Center
11:35PM 45.0667 -64.0833 288° West 350 403 11,300 1,380 Climbing Moncton Center
11:36PM 45.1000 -64.2333 262° West 380 437 13,200 1,920 Climbing Moncton Center
11:37PM 45.0833 -64.4000 270° West 380 437 15,200 1,500 Climbing Moncton Center
11:38PM 45.0833 -64.5333 270° West 390 449 16,300 1,140 Climbing Moncton Center
11:39PM 45.0833 -64.7000 262° West 400 460 17,500 900 Climbing Moncton Center
11:40PM 45.0667 -64.8667 262° West 420 483 18,100 900 Climbing Moncton Center
11:41PM 45.0500 -65.0333 270° West 440 506 19,400 1,440 Climbing Moncton Center
11:42PM 45.0500 -65.2000 270° West 430 495 21,000 1,380 Climbing Moncton Center
11:43PM 45.0500 -65.3833 262° West 430 495 22,200 1,080 Climbing Moncton Center
11:44PM 45.0333 -65.5500 270° West 440 506 23,200 1,080 Climbing Moncton Center
11:45PM 45.0333 -65.7167 262° West 440 506 24,400 1,260 Climbing Moncton Center
11:46PM 45.0167 -65.8833 270° West 440 506 25,800 1,200 Climbing Moncton Center
11:47PM 45.0167 -66.0500 257° West 430 495 26,900 900 Climbing Moncton Center
11:48PM 44.9833 -66.2500 270° West 430 495 27,700 900 Climbing Moncton Center
11:49PM 44.9833 -66.4000 270° West 440 506 28,800 1,140 Climbing Moncton Center
11:50PM 44.9833 -66.5667 262° West 430 495 30,000 1,080 Climbing Moncton Center
11:51PM 44.9667 -66.7333 270° West 430 495 31,000 780 Climbing Moncton Center
11:52PM 44.9667 -66.9000 254° West 430 495 31,600 480 Climbing Moncton Center
11:53PM 44.9333 -67.0667 272° West 430 495 32,000 180 Climbing Moncton Center
11:54PM 44.9378 -67.2339 263° West 438 504 32,000  Level Boston Center
11:55PM 44.9228 -67.4083 260° West 444 511 32,000  Level Boston Center
11:56PM 44.9011 -67.5861 264° West 456 525 32,000  Level Boston Center
11:57PM 44.8872 -67.7572 261° West 456 525 32,000  Level Boston Center
11:58PM 44.8672 -67.9347 258° West 456 525 32,000  Level Boston Center
11:59PM 44.8425 -68.1036 258° West 450 518 32,000  Level Boston Center
12:00AM 44.8175 -68.2753 257° West 450 518 32,000  Level Boston Center
12:01AM 44.7903 -68.4442 258° West 450 518 32,000  Level Boston Center
12:02AM 44.7644 -68.6125 258° West 450 518 32,000  Level Boston Center
12:03AM 44.7389 -68.7808 259° West 450 518 32,000  Level Boston Center
12:04AM 44.7169 -68.9458 260° West 450 518 32,000  Level Boston Center
12:05AM 44.6931 -69.1314 258° West 450 518 32,000  Level Boston Center
12:06AM 44.6686 -69.2992 258° West 445 512 32,000  Level Boston Center
12:07AM 44.6439 -69.4669 259° West 445 512 32,000  Level Boston Center
12:08AM 44.6211 -69.6342 259° West 445 512 32,000  Level Boston Center
12:09AM 44.5978 -69.8017 259° West 440 506 32,000  Level Boston Center
12:10AM 44.5744 -69.9658 258° West 440 506 32,000  Level Boston Center
12:11AM 44.5486 -70.1300 259° West 434 499 32,000  Level Boston Center
12:12AM 44.5286 -70.2736 258° West 429 494 32,000  Level Boston Center
12:13AM 44.5022 -70.4406 258° West 429 494 32,000  Level Boston Center
12:14AM 44.4781 -70.6042 256° West 435 501 32,000  Level Boston Center
12:15AM 44.4492 -70.7708 257° West 435 501 32,000  Level Boston Center
12:16AM 44.4222 -70.9344 257° West 435 501 32,000  Level Boston Center
12:17AM 44.3950 -71.0950 258° West 430 495 32,000  Level Boston Center
12:18AM 44.3658 -71.2786 257° West 430 495 32,000  Level Boston Center
12:19AM 44.3383 -71.4444 257° West 435 501 32,000  Level Boston Center
12:20AM 44.3106 -71.6103 258° West 435 501 32,000  Level Boston Center
12:21AM 44.2844 -71.7761 259° West 435 501 32,000  Level Boston Center
12:22AM 44.2603 -71.9414 258° West 435 501 32,000  Level Boston Center
12:23AM 44.2339 -72.1069 258° West 435 501 32,000  Level Boston Center
12:24AM 44.2092 -72.2750 257° West 435 501 32,000  Level Boston Center
12:25AM 44.1822 -72.4372 257° West 435 501 32,000  Level Boston Center
12:26AM 44.1550 -72.6050 258° West 441 507 32,000  Level Boston Center
12:27AM 44.1297 -72.7697 258° West 441 507 32,000  Level Boston Center
12:28AM 44.1039 -72.9344 257° West 441 507 32,000  Level Boston Center
12:29AM 44.0761 -73.1019 256° West 446 513 32,000  Level Boston Center
12:30AM 44.0458 -73.2661 258° West 451 519 32,000  Level Boston Center
12:31AM 44.0194 -73.4333 256° West 451 519 32,000  Level Boston Center
12:32AM 43.9889 -73.6000 255° West 451 519 32,000  Level Boston Center
12:33AM 43.9578 -73.7608 255° West 446 513 32,000  Level Boston Center
12:34AM 43.9244 -73.9275 255° West 454 522 32,000  Level Boston Center
12:35AM 43.8911 -74.0967 255° West 454 522 32,000  Level Boston Center
12:36AM 43.8594 -74.2597 257° West 454 522 32,000  Level Boston Center
12:37AM 43.8314 -74.4289 256° West 454 522 32,000  Level Boston Center
12:38AM 43.8014 -74.5947 256° West 449 517 32,000  Level Boston Center
12:39AM 43.7711 -74.7633 256° West 449 517 32,000  Level Boston Center
12:40AM 43.7406 -74.9289 257° West 449 517 32,000  Level Boston Center
12:41AM 43.7117 -75.0972 255° West 449 517 32,000  Level Boston Center
12:42AM 43.6806 -75.2622 257° West 449 517 32,000  Level Boston Center
12:43AM 43.6514 -75.4303 256° West 449 517 32,000  Level Boston Center
12:44AM 43.6244 -75.5839 253° West 449 517 32,000  Level Boston Center
12:45AM 43.5883 -75.7483 253° West 449 517 32,000  Level Boston Center
12:46AM 43.5522 -75.9125 253° West 449 517 32,000  Level Boston Center
12:49AM 43.4328 -76.4492 253° West 460 529 32,000  Level Cleveland Center
12:50AM 43.3967 -76.6144 254° West 454 522 32,000  Level Cleveland Center
12:51AM 43.3628 -76.7794 255° West 444 511 32,000  Level Cleveland Center
12:52AM 43.3306 -76.9469 254° West 461 531 32,000  Level Cleveland Center
12:53AM 43.2997 -77.0944 254° West 461 531 32,000  Level Cleveland Center
12:54AM 43.2650 -77.2644 257° West 461 531 32,000  Level Cleveland Center
12:55AM 43.2364 -77.4314 256° West 461 531 32,000  Level Cleveland Center
12:56AM 43.2056 -77.6039 257° West 461 531 32,000  Level Cleveland Center
12:57AM 43.1764 -77.7733 256° West 456 525 32,000  Level Cleveland Center
12:58AM 43.1450 -77.9425 255° West 456 525 32,000  Level Cleveland Center
12:59AM 43.1111 -78.1119 260° West 456 525 32,000  Level Cleveland Center
01:00AM 43.0897 -78.2806 272° West 456 525 32,000 -1,800 Level Cleveland Center
01:01AM 43.0953 -78.4594 274° West 459 528 28,500 -3,660 Descending Cleveland Center
01:02AM 43.1047 -78.6525 275° West 459 528 24,700 -4,140 Descending Cleveland Center
01:03AM 43.1158 -78.8200 276° West 459 528 20,300 -4,200 Descending Cleveland Center
01:04AM 43.1286 -78.9817 273° West 446 513 16,400 -3,600 Descending Cleveland Center
01:05AM 43.1347 -79.1381 270° West 431 496 13,100 -3,180 Descending Cleveland Center
01:06AM 43.1342 -79.2717 271° West 379 436 10,100 -2,700 Descending Cleveland Center
01:07AM 43.1356 -79.3911 267° West 335 386 7,700 -2,400 Descending Cleveland Center
01:08AM 43.1322 -79.4853 271° West 293 337 5,300 -1,980 Descending Cleveland Center
01:09AM 43.1333 -79.5847 269° West 277 319 3,800 -1,200 Descending Cleveland Center
01:10AM 43.1319 -79.6956 271° West 266 306 3,000 -660 Descending Cleveland Center
01:11AM 43.1333 -79.8000 289° West 240 276 2,300 -720 Descending Toronto Center
01:12AM 43.1500 -79.8667 289° West 190 219 1,300 -780 Descending Toronto Center
01:13AM 43.1667 -79.9333 289° West 160 184 800 -540 Descending Toronto Center